Hartford, West Virginia
Current Conditions -  °F | °C
As of 10:55 AM on Thursday 27 Nov 2014 (Local Time) from K3I2 Reporting Station
Overcast Overcast  
Wind Chill: 28°   Ceiling: 1400
Heat Index: 34°   Visibility: 7mi
Dew Point: 30°   Wind: 7mph
Humidity: 87%   Direction: 300°WNW
Pressure: 30.22"   Gusts: NA
Location:  39°N, 81.98°W
Report Text: K3I2 271555Z AUTO 30006KT 7SM OVC014 01/M01 A3022 RMK AO2
Loading
Personal Weather Stations






























Interactive Weather Map New forecast layout! Learn more

10-Day Weather Forecast

Advertisements
Track Severe Weather on mobile